TKY91L LFOB-LPPT
Flight info
| Callsign | TKY91L |
|---|---|
| Flight time | N/A |
| Altitude | 35000 |
| Route | LGL UT176 TERPO UN872 ERIGA UZ218 FUJTI DCT BAKUP DCT BATAX DCT INBOM |
| Aircraft | B738/M-SDE2E3FGHIRWXY/LB1 |
Departure
| Time | 2026-05-06 16:42 |
|---|---|
| Airport | Beauvais-Tillé airport (LFOB) |
Arrival
| Time | N/A |
|---|---|
| Airport | Lisbon Humberto Delgado Airport (LPPT) |
| Time | Latitude | Longitude | Altitude | Speed | Heading |
|---|---|---|---|---|---|
| 2026-05-06 16:11 | 49.45854 | 2.11375 | 346 ft | 0 kts | 311° |
| 2026-05-06 16:30 | 49.45846 | 2.11388 | 353 ft | 4 kts | 312° |
| 2026-05-06 16:30 | 49.45830 | 2.11419 | 356 ft | 4 kts | 296° |
| 2026-05-06 16:31 | 49.45822 | 2.11457 | 351 ft | 4 kts | 265° |
| 2026-05-06 16:31 | 49.45830 | 2.11489 | 356 ft | 1 kts | 225° |
| 2026-05-06 16:31 | 49.45833 | 2.11495 | 357 ft | 0 kts | 225° |
| 2026-05-06 16:34 | 49.45831 | 2.11493 | 356 ft | 1 kts | 214° |
| 2026-05-06 16:34 | 49.45812 | 2.11493 | 356 ft | 5 kts | 169° |
| 2026-05-06 16:34 | 49.45775 | 2.11538 | 351 ft | 8 kts | 133° |
| 2026-05-06 16:35 | 49.45736 | 2.11603 | 353 ft | 8 kts | 131° |
| 2026-05-06 16:35 | 49.45686 | 2.11611 | 346 ft | 8 kts | 210° |
| 2026-05-06 16:35 | 49.45643 | 2.11556 | 345 ft | 8 kts | 222° |
| 2026-05-06 16:35 | 49.45603 | 2.11500 | 344 ft | 8 kts | 223° |
| 2026-05-06 16:36 | 49.45561 | 2.11442 | 342 ft | 9 kts | 220° |
| 2026-05-06 16:36 | 49.45514 | 2.11379 | 338 ft | 9 kts | 222° |
| 2026-05-06 16:36 | 49.45467 | 2.11320 | 339 ft | 9 kts | 209° |
| 2026-05-06 16:36 | 49.45416 | 2.11347 | 336 ft | 9 kts | 126° |
| 2026-05-06 16:37 | 49.45369 | 2.11449 | 335 ft | 14 kts | 124° |
| 2026-05-06 16:37 | 49.45305 | 2.11597 | 335 ft | 19 kts | 123° |
| 2026-05-06 16:37 | 49.45226 | 2.11779 | 333 ft | 21 kts | 123° |
| 2026-05-06 16:37 | 49.45145 | 2.11967 | 335 ft | 21 kts | 123° |
| 2026-05-06 16:38 | 49.45069 | 2.12141 | 331 ft | 15 kts | 124° |
| 2026-05-06 16:38 | 49.45036 | 2.12268 | 329 ft | 12 kts | 95° |
| 2026-05-06 16:38 | 49.45031 | 2.12407 | 327 ft | 13 kts | 94° |
| 2026-05-06 16:38 | 49.45025 | 2.12545 | 325 ft | 13 kts | 93° |
| 2026-05-06 16:39 | 49.45019 | 2.12679 | 323 ft | 12 kts | 97° |
| 2026-05-06 16:39 | 49.44984 | 2.12798 | 319 ft | 13 kts | 125° |
| 2026-05-06 16:39 | 49.44932 | 2.12916 | 315 ft | 14 kts | 123° |
| 2026-05-06 16:39 | 49.44876 | 2.13046 | 313 ft | 15 kts | 124° |
| 2026-05-06 16:40 | 49.44819 | 2.13178 | 310 ft | 15 kts | 124° |
| 2026-05-06 16:40 | 49.44763 | 2.13284 | 307 ft | 10 kts | 149° |
| 2026-05-06 16:40 | 49.44693 | 2.13291 | 305 ft | 10 kts | 204° |
| 2026-05-06 16:40 | 49.44649 | 2.13212 | 309 ft | 10 kts | 252° |
| 2026-05-06 16:41 | 49.44655 | 2.13097 | 309 ft | 16 kts | 295° |
| 2026-05-06 16:41 | 49.44801 | 2.12758 | 317 ft | 71 kts | 304° |
| 2026-05-06 16:41 | 49.45198 | 2.11846 | 333 ft | 132 kts | 304° |
| 2026-05-06 16:41 | 49.45797 | 2.10459 | 430 ft | 175 kts | 304° |
| 2026-05-06 16:42 | 49.46464 | 2.08836 | 1174 ft | 181 kts | 297° |
| 2026-05-06 16:42 | 49.46875 | 2.06978 | 2007 ft | 188 kts | 288° |
| 2026-05-06 16:42 | 49.47169 | 2.05004 | 2546 ft | 200 kts | 284° |
| 2026-05-06 16:42 | 49.47466 | 2.02797 | 2809 ft | 220 kts | 284° |
| 2026-05-06 16:43 | 49.47621 | 2.00384 | 3326 ft | 236 kts | 268° |
| 2026-05-06 16:43 | 49.46945 | 1.97974 | 3759 ft | 260 kts | 227° |
| 2026-05-06 16:43 | 49.45341 | 1.96586 | 4442 ft | 273 kts | 192° |
| 2026-05-06 16:43 | 49.43482 | 1.95990 | 5181 ft | 274 kts | 204° |
| 2026-05-06 16:44 | 49.41776 | 1.94614 | 6015 ft | 281 kts | 210° |
| 2026-05-06 16:44 | 49.40023 | 1.93285 | 6896 ft | 279 kts | 208° |
| 2026-05-06 16:44 | 49.38239 | 1.91974 | 7542 ft | 288 kts | 207° |
| 2026-05-06 16:44 | 49.36498 | 1.90488 | 8384 ft | 285 kts | 214° |
| 2026-05-06 16:45 | 49.34831 | 1.88809 | 9164 ft | 289 kts | 216° |
| 2026-05-06 16:45 | 49.33160 | 1.87086 | 9965 ft | 290 kts | 216° |
| 2026-05-06 16:45 | 49.31446 | 1.85324 | 10384 ft | 306 kts | 216° |
| 2026-05-06 16:45 | 49.29603 | 1.83451 | 10592 ft | 330 kts | 214° |
| 2026-05-06 16:46 | 49.27613 | 1.81457 | 10793 ft | 354 kts | 214° |
| 2026-05-06 16:46 | 49.25547 | 1.79386 | 11322 ft | 364 kts | 214° |
| 2026-05-06 16:46 | 49.23414 | 1.77253 | 12010 ft | 368 kts | 216° |
| 2026-05-06 16:46 | 49.21590 | 1.74570 | 12767 ft | 365 kts | 238° |
| 2026-05-06 16:47 | 49.20369 | 1.71163 | 13436 ft | 368 kts | 245° |
| 2026-05-06 16:47 | 49.19176 | 1.67666 | 13991 ft | 374 kts | 244° |
| 2026-05-06 16:47 | 49.17965 | 1.64138 | 14650 ft | 374 kts | 243° |
| 2026-05-06 16:47 | 49.16751 | 1.60630 | 15397 ft | 375 kts | 243° |
| 2026-05-06 16:48 | 49.15518 | 1.57086 | 16031 ft | 379 kts | 243° |
| 2026-05-06 16:48 | 49.14266 | 1.53507 | 16682 ft | 381 kts | 243° |
| 2026-05-06 16:48 | 49.13015 | 1.49943 | 17332 ft | 382 kts | 243° |
| 2026-05-06 16:48 | 49.11748 | 1.46342 | 17886 ft | 386 kts | 242° |
| 2026-05-06 16:49 | 49.10471 | 1.42718 | 18485 ft | 388 kts | 242° |
| 2026-05-06 16:49 | 49.09191 | 1.39090 | 19072 ft | 389 kts | 242° |
| 2026-05-06 16:49 | 49.07898 | 1.35429 | 19506 ft | 396 kts | 242° |
| 2026-05-06 16:49 | 49.06580 | 1.31705 | 20032 ft | 399 kts | 243° |
| 2026-05-06 16:50 | 49.05255 | 1.27966 | 20483 ft | 404 kts | 243° |
| 2026-05-06 16:50 | 49.03911 | 1.24174 | 20921 ft | 408 kts | 242° |
| 2026-05-06 16:50 | 49.02579 | 1.20413 | 21411 ft | 410 kts | 243° |
| 2026-05-06 16:50 | 49.01672 | 1.17807 | 21753 ft | 411 kts | 243° |
| 2026-05-06 16:51 | 48.99909 | 1.12686 | 22389 ft | 414 kts | 244° |
| 2026-05-06 16:51 | 48.98569 | 1.08791 | 22826 ft | 417 kts | 244° |
| 2026-05-06 16:51 | 48.97218 | 1.04865 | 23270 ft | 419 kts | 244° |
| 2026-05-06 16:51 | 48.95858 | 1.00927 | 23704 ft | 421 kts | 243° |
| 2026-05-06 16:52 | 48.94485 | 0.96966 | 24042 ft | 425 kts | 243° |
| 2026-05-06 16:52 | 48.93569 | 0.94326 | 24269 ft | 427 kts | 244° |
| 2026-05-06 16:52 | 48.92179 | 0.90327 | 24638 ft | 428 kts | 243° |
| 2026-05-06 16:52 | 48.90325 | 0.85005 | 25103 ft | 431 kts | 243° |
| 2026-05-06 16:53 | 48.88916 | 0.80968 | 25439 ft | 434 kts | 243° |
| 2026-05-06 16:53 | 48.86339 | 0.73600 | 26041 ft | 438 kts | 243° |
| 2026-05-06 16:53 | 48.84904 | 0.69503 | 26358 ft | 440 kts | 243° |
| 2026-05-06 16:54 | 48.83463 | 0.65396 | 26680 ft | 442 kts | 244° |
| 2026-05-06 16:54 | 48.82012 | 0.61265 | 26997 ft | 444 kts | 243° |
| 2026-05-06 16:54 | 48.80553 | 0.57121 | 27296 ft | 446 kts | 243° |
| 2026-05-06 16:54 | 48.79071 | 0.52977 | 27590 ft | 449 kts | 240° |
| 2026-05-06 16:55 | 48.77231 | 0.49134 | 27879 ft | 452 kts | 231° |
| 2026-05-06 16:55 | 48.75158 | 0.45532 | 28206 ft | 454 kts | 230° |
| 2026-05-06 16:55 | 48.73063 | 0.42006 | 28451 ft | 456 kts | 229° |
| 2026-05-06 16:55 | 48.70952 | 0.38430 | 28934 ft | 453 kts | 229° |
| 2026-05-06 16:56 | 48.68874 | 0.34845 | 29303 ft | 453 kts | 231° |
| 2026-05-06 16:56 | 48.66809 | 0.31231 | 29606 ft | 454 kts | 231° |
| 2026-05-06 16:56 | 48.64749 | 0.27598 | 29916 ft | 455 kts | 231° |
| 2026-05-06 16:56 | 48.62691 | 0.23959 | 30128 ft | 457 kts | 231° |
| 2026-05-06 16:57 | 48.60622 | 0.20310 | 30482 ft | 455 kts | 231° |
| 2026-05-06 16:57 | 48.58565 | 0.16695 | 31003 ft | 452 kts | 231° |
| 2026-05-06 16:57 | 48.56516 | 0.13089 | 31307 ft | 452 kts | 231° |
| 2026-05-06 16:57 | 48.54479 | 0.09474 | 31561 ft | 453 kts | 231° |
| 2026-05-06 16:58 | 48.52446 | 0.05851 | 31867 ft | 452 kts | 231° |
| 2026-05-06 16:58 | 48.50420 | 0.02244 | 32181 ft | 450 kts | 231° |
| 2026-05-06 16:58 | 48.48392 | -0.01358 | 32486 ft | 449 kts | 231° |
| 2026-05-06 16:58 | 48.46375 | -0.04935 | 32834 ft | 447 kts | 231° |
| 2026-05-06 16:59 | 48.44381 | -0.08463 | 32975 ft | 450 kts | 231° |
| 2026-05-06 16:59 | 48.40292 | -0.15685 | 32975 ft | 453 kts | 231° |
| 2026-05-06 17:00 | 48.36230 | -0.22835 | 32961 ft | 445 kts | 231° |
| 2026-05-06 17:00 | 48.32188 | -0.29889 | 32981 ft | 446 kts | 230° |
| 2026-05-06 17:01 | 48.28103 | -0.36923 | 32981 ft | 447 kts | 230° |
| 2026-05-06 17:01 | 48.24006 | -0.43959 | 32977 ft | 448 kts | 230° |
| 2026-05-06 17:02 | 48.19898 | -0.51007 | 32969 ft | 449 kts | 230° |
| 2026-05-06 17:02 | 48.15779 | -0.58061 | 32969 ft | 450 kts | 230° |
| 2026-05-06 17:03 | 48.11654 | -0.65106 | 32966 ft | 450 kts | 230° |
| 2026-05-06 17:03 | 48.07524 | -0.72143 | 32967 ft | 450 kts | 230° |
| 2026-05-06 17:04 | 48.03415 | -0.79123 | 32963 ft | 450 kts | 230° |
| 2026-05-06 17:04 | 47.99279 | -0.86132 | 32956 ft | 449 kts | 230° |
| 2026-05-06 17:05 | 47.95139 | -0.93129 | 32966 ft | 448 kts | 230° |
| 2026-05-06 17:05 | 47.91024 | -1.00065 | 32987 ft | 445 kts | 230° |
| 2026-05-06 17:05 | 47.88963 | -1.03533 | 33200 ft | 446 kts | 230° |
| 2026-05-06 17:06 | 47.86911 | -1.06980 | 33567 ft | 443 kts | 230° |
| 2026-05-06 17:06 | 47.84870 | -1.10404 | 33945 ft | 441 kts | 230° |
| 2026-05-06 17:06 | 47.82840 | -1.13806 | 34232 ft | 439 kts | 230° |
| 2026-05-06 17:06 | 47.80811 | -1.17202 | 34444 ft | 439 kts | 230° |
| 2026-05-06 17:07 | 47.78782 | -1.20596 | 34616 ft | 439 kts | 230° |
| 2026-05-06 17:07 | 47.76762 | -1.23968 | 34943 ft | 435 kts | 230° |
| 2026-05-06 17:07 | 47.74749 | -1.27324 | 34918 ft | 432 kts | 230° |
| 2026-05-06 17:08 | 47.70801 | -1.33894 | 34944 ft | 422 kts | 230° |
| 2026-05-06 17:08 | 47.66929 | -1.40325 | 34950 ft | 419 kts | 230° |
| 2026-05-06 17:09 | 47.63070 | -1.46722 | 34949 ft | 414 kts | 230° |
| 2026-05-06 17:09 | 47.59229 | -1.53068 | 34952 ft | 412 kts | 230° |
| 2026-05-06 17:10 | 47.55395 | -1.59379 | 34950 ft | 411 kts | 230° |
| 2026-05-06 17:10 | 47.51560 | -1.65680 | 34950 ft | 413 kts | 230° |
| 2026-05-06 17:11 | 47.47696 | -1.72017 | 34963 ft | 422 kts | 230° |
| 2026-05-06 17:11 | 47.43722 | -1.78521 | 34957 ft | 428 kts | 230° |
| 2026-05-06 17:12 | 47.39726 | -1.85044 | 34949 ft | 428 kts | 230° |
| 2026-05-06 17:12 | 47.35703 | -1.91531 | 34955 ft | 428 kts | 226° |
| 2026-05-06 17:12 | 47.33418 | -1.94366 | 34955 ft | 430 kts | 215° |
| 2026-05-06 17:13 | 47.30868 | -1.96706 | 34971 ft | 430 kts | 212° |
| 2026-05-06 17:13 | 47.25733 | -2.01188 | 34965 ft | 429 kts | 212° |
| 2026-05-06 17:14 | 47.20616 | -2.05679 | 34962 ft | 427 kts | 213° |
| 2026-05-06 17:14 | 47.15566 | -2.10157 | 34960 ft | 426 kts | 213° |
| 2026-05-06 17:15 | 47.10500 | -2.14660 | 34959 ft | 425 kts | 213° |
| 2026-05-06 17:15 | 47.05437 | -2.19152 | 34969 ft | 424 kts | 213° |
| 2026-05-06 17:16 | 47.00408 | -2.23602 | 34959 ft | 424 kts | 213° |
| 2026-05-06 17:16 | 46.95368 | -2.28052 | 34962 ft | 422 kts | 213° |
| 2026-05-06 17:17 | 46.90332 | -2.32489 | 34964 ft | 422 kts | 213° |
| 2026-05-06 17:17 | 46.85305 | -2.36907 | 34969 ft | 422 kts | 213° |
| 2026-05-06 17:18 | 46.80261 | -2.41335 | 34969 ft | 422 kts | 213° |
| 2026-05-06 17:18 | 46.75214 | -2.45760 | 34965 ft | 423 kts | 213° |
| 2026-05-06 17:19 | 46.70168 | -2.50175 | 34983 ft | 423 kts | 213° |
| 2026-05-06 17:19 | 46.65139 | -2.54565 | 34976 ft | 424 kts | 213° |
| 2026-05-06 17:20 | 46.60074 | -2.58977 | 34978 ft | 425 kts | 213° |
| 2026-05-06 17:20 | 46.54991 | -2.63395 | 34982 ft | 425 kts | 213° |
| 2026-05-06 17:21 | 46.49901 | -2.67809 | 34981 ft | 426 kts | 213° |
| 2026-05-06 17:21 | 46.44835 | -2.72193 | 34967 ft | 426 kts | 212° |
| 2026-05-06 17:22 | 46.39738 | -2.76595 | 34984 ft | 426 kts | 212° |
| 2026-05-06 17:22 | 46.35502 | -2.80246 | 34973 ft | 426 kts | 212° |
| 2026-05-06 17:23 | 46.30400 | -2.84636 | 34977 ft | 425 kts | 212° |
| 2026-05-06 17:23 | 46.25308 | -2.89011 | 34980 ft | 425 kts | 213° |
| 2026-05-06 17:24 | 46.20247 | -2.93412 | 34985 ft | 424 kts | 213° |
| 2026-05-06 17:24 | 46.15225 | -2.97791 | 34981 ft | 424 kts | 213° |
| 2026-05-06 17:25 | 46.10180 | -3.02178 | 34979 ft | 423 kts | 213° |
| 2026-05-06 17:25 | 46.05137 | -3.06549 | 34986 ft | 423 kts | 213° |
| 2026-05-06 17:26 | 46.00098 | -3.10905 | 34986 ft | 422 kts | 213° |
| 2026-05-06 17:26 | 45.95055 | -3.15255 | 34987 ft | 422 kts | 213° |
| 2026-05-06 17:27 | 45.90011 | -3.19597 | 34991 ft | 424 kts | 213° |
| 2026-05-06 17:27 | 45.84921 | -3.23971 | 35003 ft | 433 kts | 213° |
| 2026-05-06 17:28 | 45.79692 | -3.28454 | 35001 ft | 442 kts | 213° |
| 2026-05-06 17:28 | 45.74359 | -3.33015 | 34999 ft | 450 kts | 212° |
| 2026-05-06 17:29 | 45.68956 | -3.37624 | 34991 ft | 453 kts | 212° |
| 2026-05-06 17:29 | 45.63517 | -3.42252 | 34992 ft | 455 kts | 212° |
| 2026-05-06 17:30 | 45.58102 | -3.46850 | 34993 ft | 455 kts | 212° |
| 2026-05-06 17:30 | 45.52664 | -3.51457 | 34993 ft | 453 kts | 212° |
| 2026-05-06 17:31 | 45.47316 | -3.55977 | 34987 ft | 442 kts | 212° |
| 2026-05-06 17:31 | 45.42014 | -3.60450 | 35005 ft | 443 kts | 212° |
| 2026-05-06 17:32 | 45.36702 | -3.64923 | 35005 ft | 444 kts | 212° |
| 2026-05-06 17:32 | 45.31363 | -3.69409 | 34997 ft | 446 kts | 212° |
| 2026-05-06 17:33 | 45.26051 | -3.73860 | 35007 ft | 447 kts | 212° |
| 2026-05-06 17:33 | 45.20690 | -3.78343 | 35004 ft | 448 kts | 212° |
| 2026-05-06 17:34 | 45.15314 | -3.82828 | 35003 ft | 449 kts | 212° |
| 2026-05-06 17:34 | 45.09934 | -3.87307 | 35004 ft | 448 kts | 212° |
| 2026-05-06 17:35 | 45.04554 | -3.91775 | 34996 ft | 448 kts | 212° |
| 2026-05-06 17:35 | 44.99187 | -3.96223 | 34998 ft | 446 kts | 212° |
| 2026-05-06 17:36 | 44.91168 | -4.02852 | 34989 ft | 444 kts | 212° |
| 2026-05-06 17:36 | 44.85833 | -4.07250 | 34998 ft | 443 kts | 212° |
| 2026-05-06 17:37 | 44.80510 | -4.11628 | 35002 ft | 442 kts | 212° |
| 2026-05-06 17:37 | 44.75196 | -4.15991 | 35002 ft | 442 kts | 212° |
| 2026-05-06 17:38 | 44.69885 | -4.20340 | 35002 ft | 442 kts | 212° |
| 2026-05-06 17:38 | 44.64605 | -4.24656 | 35003 ft | 442 kts | 212° |
| 2026-05-06 17:39 | 44.59276 | -4.29003 | 35003 ft | 443 kts | 212° |
| 2026-05-06 17:39 | 44.53943 | -4.33343 | 35004 ft | 443 kts | 212° |
| 2026-05-06 17:40 | 44.48594 | -4.37688 | 35000 ft | 444 kts | 212° |
| 2026-05-06 17:40 | 44.43243 | -4.42026 | 35003 ft | 444 kts | 212° |
| 2026-05-06 17:41 | 44.37943 | -4.46378 | 35003 ft | 444 kts | 213° |
| 2026-05-06 17:41 | 44.32655 | -4.50873 | 35002 ft | 445 kts | 213° |
| 2026-05-06 17:42 | 44.27368 | -4.55375 | 35003 ft | 445 kts | 213° |
| 2026-05-06 17:42 | 44.22073 | -4.59857 | 35007 ft | 444 kts | 213° |
| 2026-05-06 17:43 | 44.16813 | -4.64288 | 34995 ft | 443 kts | 213° |
| 2026-05-06 17:43 | 44.11531 | -4.68726 | 34990 ft | 441 kts | 213° |
| 2026-05-06 17:44 | 44.06280 | -4.73128 | 34994 ft | 440 kts | 213° |
| 2026-05-06 17:44 | 44.01081 | -4.77478 | 34996 ft | 438 kts | 213° |
| 2026-05-06 17:45 | 43.95862 | -4.81835 | 34999 ft | 437 kts | 213° |
| 2026-05-06 17:45 | 43.90644 | -4.86184 | 34997 ft | 435 kts | 213° |
| 2026-05-06 17:46 | 43.85453 | -4.90500 | 35003 ft | 435 kts | 213° |
| 2026-05-06 17:46 | 43.80261 | -4.94808 | 35004 ft | 435 kts | 213° |
| 2026-05-06 17:47 | 43.75072 | -4.99106 | 35005 ft | 435 kts | 213° |
| 2026-05-06 17:47 | 43.69881 | -5.03396 | 35003 ft | 435 kts | 213° |
| 2026-05-06 17:48 | 43.64720 | -5.07653 | 35009 ft | 435 kts | 213° |
| 2026-05-06 17:48 | 43.59516 | -5.11936 | 35008 ft | 435 kts | 213° |
| 2026-05-06 17:49 | 43.54302 | -5.16219 | 35011 ft | 435 kts | 213° |
| 2026-05-06 17:49 | 43.49116 | -5.20470 | 35007 ft | 436 kts | 213° |
| 2026-05-06 17:50 | 43.43899 | -5.24737 | 35009 ft | 436 kts | 213° |
| 2026-05-06 17:50 | 43.38680 | -5.28998 | 35010 ft | 436 kts | 213° |
| 2026-05-06 17:51 | 43.33454 | -5.33256 | 35014 ft | 436 kts | 213° |
| 2026-05-06 17:51 | 43.28234 | -5.37501 | 35008 ft | 436 kts | 212° |
| 2026-05-06 17:52 | 43.23047 | -5.41711 | 35008 ft | 436 kts | 212° |
| 2026-05-06 17:52 | 43.17818 | -5.45946 | 35001 ft | 436 kts | 212° |
| 2026-05-06 17:53 | 43.12592 | -5.50169 | 34992 ft | 435 kts | 212° |
| 2026-05-06 17:53 | 43.07383 | -5.54370 | 34984 ft | 434 kts | 212° |
| 2026-05-06 17:54 | 43.02189 | -5.58552 | 34984 ft | 432 kts | 212° |
| 2026-05-06 17:54 | 42.97014 | -5.62709 | 34978 ft | 431 kts | 212° |
| 2026-05-06 17:55 | 42.91880 | -5.66826 | 34969 ft | 429 kts | 212° |
| 2026-05-06 17:55 | 42.86735 | -5.70944 | 34950 ft | 428 kts | 212° |
| 2026-05-06 17:56 | 42.81599 | -5.75046 | 34962 ft | 428 kts | 212° |
| 2026-05-06 17:56 | 42.76450 | -5.79151 | 34946 ft | 428 kts | 212° |
| 2026-05-06 17:57 | 42.71302 | -5.83247 | 34943 ft | 429 kts | 212° |
| 2026-05-06 17:57 | 42.66149 | -5.87339 | 34944 ft | 429 kts | 212° |
| 2026-05-06 17:58 | 42.61016 | -5.91408 | 34940 ft | 430 kts | 212° |
| 2026-05-06 17:58 | 42.55840 | -5.95501 | 34937 ft | 431 kts | 212° |
| 2026-05-06 17:59 | 42.50657 | -5.99594 | 34932 ft | 431 kts | 212° |
| 2026-05-06 17:59 | 42.45469 | -6.03681 | 34920 ft | 432 kts | 212° |
| 2026-05-06 18:00 | 42.40278 | -6.07765 | 34926 ft | 431 kts | 212° |
| 2026-05-06 18:00 | 42.35084 | -6.11840 | 34927 ft | 431 kts | 212° |
| 2026-05-06 18:01 | 42.29901 | -6.15901 | 34917 ft | 430 kts | 212° |
| 2026-05-06 18:01 | 42.24721 | -6.19950 | 34920 ft | 429 kts | 212° |
| 2026-05-06 18:02 | 42.19589 | -6.23956 | 34917 ft | 428 kts | 212° |
| 2026-05-06 18:02 | 42.14435 | -6.27970 | 34917 ft | 427 kts | 212° |
| 2026-05-06 18:03 | 42.09296 | -6.31966 | 34913 ft | 426 kts | 212° |
| 2026-05-06 18:03 | 42.04163 | -6.35949 | 34913 ft | 425 kts | 212° |
| 2026-05-06 18:04 | 41.99071 | -6.39893 | 34907 ft | 424 kts | 212° |
| 2026-05-06 18:04 | 41.93921 | -6.43875 | 34918 ft | 424 kts | 212° |
| 2026-05-06 18:05 | 41.88833 | -6.47802 | 34929 ft | 424 kts | 212° |
| 2026-05-06 18:05 | 41.83706 | -6.51752 | 34898 ft | 425 kts | 212° |
| 2026-05-06 18:06 | 41.78574 | -6.55698 | 34887 ft | 425 kts | 212° |
| 2026-05-06 18:06 | 41.73436 | -6.59642 | 34896 ft | 425 kts | 212° |
| 2026-05-06 18:07 | 41.68396 | -6.63759 | 34890 ft | 424 kts | 218° |
| 2026-05-06 18:07 | 41.63706 | -6.68541 | 34899 ft | 423 kts | 219° |
| 2026-05-06 18:08 | 41.59082 | -6.73356 | 34895 ft | 424 kts | 219° |